sensor_id;sensor_type;location;lat;lon;timestamp;temperature;humidity
74368;DHT22;64991;41.090;-8.118;2023-06-10T00:03:15;23.20;86.60
74368;DHT22;64991;41.090;-8.118;2023-06-10T00:08:21;23.10;86.40
74368;DHT22;64991;41.090;-8.118;2023-06-10T00:13:24;23.10;86.30
74368;DHT22;64991;41.090;-8.118;2023-06-10T00:18:28;23.10;86.40
74368;DHT22;64991;41.090;-8.118;2023-06-10T00:23:34;23.10;86.60
74368;DHT22;64991;41.090;-8.118;2023-06-10T00:28:39;23.10;86.50
74368;DHT22;64991;41.090;-8.118;2023-06-10T00:33:43;23.10;86.40
74368;DHT22;64991;41.090;-8.118;2023-06-10T00:38:47;23.10;86.30
74368;DHT22;64991;41.090;-8.118;2023-06-10T00:43:51;23.10;86.70
74368;DHT22;64991;41.090;-8.118;2023-06-10T00:48:54;23.10;86.60
74368;DHT22;64991;41.090;-8.118;2023-06-10T00:53:59;23.10;86.40
74368;DHT22;64991;41.090;-8.118;2023-06-10T00:59:03;23.10;86.70
74368;DHT22;64991;41.090;-8.118;2023-06-10T01:04:06;23.10;86.30
74368;DHT22;64991;41.090;-8.118;2023-06-10T01:09:13;23.10;86.40
74368;DHT22;64991;41.090;-8.118;2023-06-10T01:14:23;23.10;86.40
74368;DHT22;64991;41.090;-8.118;2023-06-10T01:19:26;23.10;86.50
74368;DHT22;64991;41.090;-8.118;2023-06-10T01:24:31;23.10;86.60
74368;DHT22;64991;41.090;-8.118;2023-06-10T01:29:36;23.10;86.70
74368;DHT22;64991;41.090;-8.118;2023-06-10T01:34:40;23.10;86.50
74368;DHT22;64991;41.090;-8.118;2023-06-10T01:39:48;23.10;86.40
74368;DHT22;64991;41.090;-8.118;2023-06-10T01:44:52;23.10;86.50
74368;DHT22;64991;41.090;-8.118;2023-06-10T01:49:55;23.00;86.20
74368;DHT22;64991;41.090;-8.118;2023-06-10T01:55:00;23.10;86.10
74368;DHT22;64991;41.090;-8.118;2023-06-10T02:00:05;23.00;86.30
74368;DHT22;64991;41.090;-8.118;2023-06-10T02:05:10;23.00;86.50
74368;DHT22;64991;41.090;-8.118;2023-06-10T02:10:15;23.00;86.50
74368;DHT22;64991;41.090;-8.118;2023-06-10T02:15:18;23.00;86.50
74368;DHT22;64991;41.090;-8.118;2023-06-10T02:20:22;23.00;86.40
74368;DHT22;64991;41.090;-8.118;2023-06-10T02:25:27;23.00;86.40
74368;DHT22;64991;41.090;-8.118;2023-06-10T02:30:30;23.00;86.20
74368;DHT22;64991;41.090;-8.118;2023-06-10T02:35:33;23.10;86.30
74368;DHT22;64991;41.090;-8.118;2023-06-10T02:40:38;23.00;86.40
74368;DHT22;64991;41.090;-8.118;2023-06-10T02:45:42;23.00;86.40
74368;DHT22;64991;41.090;-8.118;2023-06-10T02:50:45;23.00;86.30
74368;DHT22;64991;41.090;-8.118;2023-06-10T02:55:50;23.00;86.40
74368;DHT22;64991;41.090;-8.118;2023-06-10T03:00:54;23.00;86.30
74368;DHT22;64991;41.090;-8.118;2023-06-10T03:05:58;23.20;86.20
74368;DHT22;64991;41.090;-8.118;2023-06-10T03:11:02;23.00;86.50
74368;DHT22;64991;41.090;-8.118;2023-06-10T03:16:06;23.00;86.00
74368;DHT22;64991;41.090;-8.118;2023-06-10T03:21:09;23.00;86.30
74368;DHT22;64991;41.090;-8.118;2023-06-10T03:26:14;23.00;86.40
74368;DHT22;64991;41.090;-8.118;2023-06-10T03:31:18;23.00;86.20
74368;DHT22;64991;41.090;-8.118;2023-06-10T03:36:22;23.00;86.50
74368;DHT22;64991;41.090;-8.118;2023-06-10T03:41:27;23.00;86.30
74368;DHT22;64991;41.090;-8.118;2023-06-10T03:46:30;22.90;86.10
74368;DHT22;64991;41.090;-8.118;2023-06-10T03:51:34;23.00;86.40
74368;DHT22;64991;41.090;-8.118;2023-06-10T03:56:39;23.00;86.30
74368;DHT22;64991;41.090;-8.118;2023-06-10T04:01:42;22.90;86.10
74368;DHT22;64991;41.090;-8.118;2023-06-10T04:06:46;22.90;86.30
74368;DHT22;64991;41.090;-8.118;2023-06-10T04:11:51;23.00;86.30
74368;DHT22;64991;41.090;-8.118;2023-06-10T04:16:55;23.00;86.50
74368;DHT22;64991;41.090;-8.118;2023-06-10T04:22:00;23.00;86.30
74368;DHT22;64991;41.090;-8.118;2023-06-10T04:27:05;22.90;86.60
74368;DHT22;64991;41.090;-8.118;2023-06-10T04:32:09;23.00;86.40
74368;DHT22;64991;41.090;-8.118;2023-06-10T04:37:12;22.90;86.10
74368;DHT22;64991;41.090;-8.118;2023-06-10T04:42:17;23.00;86.30
74368;DHT22;64991;41.090;-8.118;2023-06-10T04:47:21;22.90;86.40
74368;DHT22;64991;41.090;-8.118;2023-06-10T04:52:24;22.90;86.50
74368;DHT22;64991;41.090;-8.118;2023-06-10T04:57:29;23.00;86.50
74368;DHT22;64991;41.090;-8.118;2023-06-10T05:02:33;22.90;86.40
74368;DHT22;64991;41.090;-8.118;2023-06-10T05:07:36;22.90;86.40
74368;DHT22;64991;41.090;-8.118;2023-06-10T05:12:42;22.90;86.60
74368;DHT22;64991;41.090;-8.118;2023-06-10T05:17:45;22.90;86.00
74368;DHT22;64991;41.090;-8.118;2023-06-10T05:22:48;22.90;86.20
74368;DHT22;64991;41.090;-8.118;2023-06-10T05:27:53;23.00;86.00
74368;DHT22;64991;41.090;-8.118;2023-06-10T05:32:57;22.90;86.10
74368;DHT22;64991;41.090;-8.118;2023-06-10T05:38:00;22.90;86.00
74368;DHT22;64991;41.090;-8.118;2023-06-10T05:43:06;22.90;86.20
74368;DHT22;64991;41.090;-8.118;2023-06-10T05:48:11;22.90;86.10
74368;DHT22;64991;41.090;-8.118;2023-06-10T05:53:14;22.90;86.20
74368;DHT22;64991;41.090;-8.118;2023-06-10T05:58:19;22.90;85.90
74368;DHT22;64991;41.090;-8.118;2023-06-10T06:03:23;22.90;86.10
74368;DHT22;64991;41.090;-8.118;2023-06-10T06:08:27;22.90;86.50
74368;DHT22;64991;41.090;-8.118;2023-06-10T06:13:31;22.90;86.10
74368;DHT22;64991;41.090;-8.118;2023-06-10T06:18:35;22.90;86.30
74368;DHT22;64991;41.090;-8.118;2023-06-10T06:23:38;22.90;86.10
74368;DHT22;64991;41.090;-8.118;2023-06-10T06:28:43;22.80;86.20
74368;DHT22;64991;41.090;-8.118;2023-06-10T06:33:47;22.90;86.10
74368;DHT22;64991;41.090;-8.118;2023-06-10T06:38:50;22.90;86.20
74368;DHT22;64991;41.090;-8.118;2023-06-10T06:43:55;22.90;86.00
74368;DHT22;64991;41.090;-8.118;2023-06-10T06:48:58;22.90;85.90
74368;DHT22;64991;41.090;-8.118;2023-06-10T06:54:02;22.90;86.20
74368;DHT22;64991;41.090;-8.118;2023-06-10T06:59:08;22.90;85.90
74368;DHT22;64991;41.090;-8.118;2023-06-10T07:04:14;22.90;86.10
74368;DHT22;64991;41.090;-8.118;2023-06-10T07:09:18;22.90;86.10
74368;DHT22;64991;41.090;-8.118;2023-06-10T07:14:23;22.90;86.20
74368;DHT22;64991;41.090;-8.118;2023-06-10T07:19:26;22.90;86.40
74368;DHT22;64991;41.090;-8.118;2023-06-10T07:24:30;23.00;86.10
74368;DHT22;64991;41.090;-8.118;2023-06-10T07:29:35;22.90;86.20
74368;DHT22;64991;41.090;-8.118;2023-06-10T07:34:38;22.90;86.00
74368;DHT22;64991;41.090;-8.118;2023-06-10T07:39:59;22.90;86.20
74368;DHT22;64991;41.090;-8.118;2023-06-10T07:45:05;22.90;86.20
74368;DHT22;64991;41.090;-8.118;2023-06-10T07:50:09;22.90;86.40
74368;DHT22;64991;41.090;-8.118;2023-06-10T07:55:13;23.00;86.20
74368;DHT22;64991;41.090;-8.118;2023-06-10T08:00:18;22.90;86.20
74368;DHT22;64991;41.090;-8.118;2023-06-10T08:05:22;23.00;86.20
74368;DHT22;64991;41.090;-8.118;2023-06-10T08:10:26;22.90;86.10
74368;DHT22;64991;41.090;-8.118;2023-06-10T08:15:30;22.90;86.20
74368;DHT22;64991;41.090;-8.118;2023-06-10T08:20:34;22.90;86.10
74368;DHT22;64991;41.090;-8.118;2023-06-10T08:25:37;22.90;86.40
74368;DHT22;64991;41.090;-8.118;2023-06-10T08:30:42;22.90;86.40
74368;DHT22;64991;41.090;-8.118;2023-06-10T08:35:46;22.90;86.30
74368;DHT22;64991;41.090;-8.118;2023-06-10T08:40:49;22.90;86.30
74368;DHT22;64991;41.090;-8.118;2023-06-10T08:45:56;22.90;86.60
74368;DHT22;64991;41.090;-8.118;2023-06-10T08:51:03;22.90;86.40
74368;DHT22;64991;41.090;-8.118;2023-06-10T08:56:07;22.90;86.50
74368;DHT22;64991;41.090;-8.118;2023-06-10T09:01:13;22.90;86.60
74368;DHT22;64991;41.090;-8.118;2023-06-10T09:06:18;22.90;86.40
74368;DHT22;64991;41.090;-8.118;2023-06-10T09:11:22;22.90;86.50
74368;DHT22;64991;41.090;-8.118;2023-06-10T09:16:27;23.00;86.40
74368;DHT22;64991;41.090;-8.118;2023-06-10T09:21:31;22.90;86.60
74368;DHT22;64991;41.090;-8.118;2023-06-10T09:26:34;22.90;86.50
74368;DHT22;64991;41.090;-8.118;2023-06-10T09:31:39;22.90;86.40
74368;DHT22;64991;41.090;-8.118;2023-06-10T09:36:44;22.90;86.70
74368;DHT22;64991;41.090;-8.118;2023-06-10T09:41:48;22.90;86.60
74368;DHT22;64991;41.090;-8.118;2023-06-10T09:46:53;22.90;86.60
74368;DHT22;64991;41.090;-8.118;2023-06-10T09:52:01;22.90;86.60
74368;DHT22;64991;41.090;-8.118;2023-06-10T09:57:08;22.90;86.70
74368;DHT22;64991;41.090;-8.118;2023-06-10T10:02:16;22.90;86.70
74368;DHT22;64991;41.090;-8.118;2023-06-10T10:07:20;22.90;86.40
74368;DHT22;64991;41.090;-8.118;2023-06-10T10:12:24;22.90;86.80
74368;DHT22;64991;41.090;-8.118;2023-06-10T10:17:29;22.90;86.60
74368;DHT22;64991;41.090;-8.118;2023-06-10T10:22:35;23.00;86.60
74368;DHT22;64991;41.090;-8.118;2023-06-10T10:27:43;22.90;86.50
74368;DHT22;64991;41.090;-8.118;2023-06-10T10:32:52;22.90;86.60
74368;DHT22;64991;41.090;-8.118;2023-06-10T10:38:00;23.00;86.50
74368;DHT22;64991;41.090;-8.118;2023-06-10T10:43:05;23.00;86.30
74368;DHT22;64991;41.090;-8.118;2023-06-10T10:48:10;22.90;86.40
74368;DHT22;64991;41.090;-8.118;2023-06-10T10:53:14;22.90;86.50
74368;DHT22;64991;41.090;-8.118;2023-06-10T10:58:24;22.90;86.50
74368;DHT22;64991;41.090;-8.118;2023-06-10T11:03:29;22.90;86.60
74368;DHT22;64991;41.090;-8.118;2023-06-10T11:08:45;23.00;86.60
74368;DHT22;64991;41.090;-8.118;2023-06-10T11:14:05;22.90;86.50
74368;DHT22;64991;41.090;-8.118;2023-06-10T11:19:17;22.90;86.30
74368;DHT22;64991;41.090;-8.118;2023-06-10T11:24:35;23.00;86.60
74368;DHT22;64991;41.090;-8.118;2023-06-10T11:29:38;23.00;86.60
74368;DHT22;64991;41.090;-8.118;2023-06-10T11:34:43;23.00;86.30
74368;DHT22;64991;41.090;-8.118;2023-06-10T11:39:55;22.90;86.60
74368;DHT22;64991;41.090;-8.118;2023-06-10T11:44:58;22.90;86.30
74368;DHT22;64991;41.090;-8.118;2023-06-10T11:50:06;22.90;86.20
74368;DHT22;64991;41.090;-8.118;2023-06-10T11:55:10;22.90;86.20
74368;DHT22;64991;41.090;-8.118;2023-06-10T12:00:14;22.90;86.30
74368;DHT22;64991;41.090;-8.118;2023-06-10T12:05:20;22.90;86.50
74368;DHT22;64991;41.090;-8.118;2023-06-10T12:10:23;23.00;86.40
74368;DHT22;64991;41.090;-8.118;2023-06-10T12:15:28;22.90;86.40
74368;DHT22;64991;41.090;-8.118;2023-06-10T12:20:35;22.90;86.50
74368;DHT22;64991;41.090;-8.118;2023-06-10T12:25:42;22.90;86.60
74368;DHT22;64991;41.090;-8.118;2023-06-10T12:31:05;22.90;86.30
74368;DHT22;64991;41.090;-8.118;2023-06-10T12:36:15;22.90;86.30
74368;DHT22;64991;41.090;-8.118;2023-06-10T12:41:19;23.00;86.30
74368;DHT22;64991;41.090;-8.118;2023-06-10T12:46:22;22.90;86.60
74368;DHT22;64991;41.090;-8.118;2023-06-10T12:51:28;23.00;86.20
74368;DHT22;64991;41.090;-8.118;2023-06-10T12:56:31;23.00;86.20
74368;DHT22;64991;41.090;-8.118;2023-06-10T13:01:53;23.00;86.20
74368;DHT22;64991;41.090;-8.118;2023-06-10T13:06:58;23.00;86.30
74368;DHT22;64991;41.090;-8.118;2023-06-10T13:12:02;23.00;86.10
74368;DHT22;64991;41.090;-8.118;2023-06-10T13:17:07;23.00;86.40
74368;DHT22;64991;41.090;-8.118;2023-06-10T13:22:12;23.00;86.30
74368;DHT22;64991;41.090;-8.118;2023-06-10T13:27:15;23.00;86.10
74368;DHT22;64991;41.090;-8.118;2023-06-10T13:32:19;23.00;86.00
74368;DHT22;64991;41.090;-8.118;2023-06-10T13:37:24;22.90;86.00
74368;DHT22;64991;41.090;-8.118;2023-06-10T13:42:27;23.00;85.90
74368;DHT22;64991;41.090;-8.118;2023-06-10T13:47:48;22.90;85.90
74368;DHT22;64991;41.090;-8.118;2023-06-10T13:52:53;22.90;85.70
74368;DHT22;64991;41.090;-8.118;2023-06-10T13:57:57;23.00;86.00
74368;DHT22;64991;41.090;-8.118;2023-06-10T14:03:01;23.00;85.80
74368;DHT22;64991;41.090;-8.118;2023-06-10T14:08:06;22.90;86.00
74368;DHT22;64991;41.090;-8.118;2023-06-10T14:13:10;22.90;85.80
74368;DHT22;64991;41.090;-8.118;2023-06-10T14:18:13;23.00;86.10
74368;DHT22;64991;41.090;-8.118;2023-06-10T14:23:18;22.90;86.00
74368;DHT22;64991;41.090;-8.118;2023-06-10T14:28:22;22.90;86.00
74368;DHT22;64991;41.090;-8.118;2023-06-10T14:33:25;23.00;85.90
74368;DHT22;64991;41.090;-8.118;2023-06-10T14:38:30;23.00;86.20
74368;DHT22;64991;41.090;-8.118;2023-06-10T14:43:34;23.00;85.90
74368;DHT22;64991;41.090;-8.118;2023-06-10T14:48:37;22.90;86.00
74368;DHT22;64991;41.090;-8.118;2023-06-10T14:53:42;23.00;85.90
74368;DHT22;64991;41.090;-8.118;2023-06-10T14:58:47;23.00;86.00
74368;DHT22;64991;41.090;-8.118;2023-06-10T15:03:50;22.90;86.20
74368;DHT22;64991;41.090;-8.118;2023-06-10T15:08:55;22.90;86.00
74368;DHT22;64991;41.090;-8.118;2023-06-10T15:13:59;23.00;85.90
74368;DHT22;64991;41.090;-8.118;2023-06-10T15:19:02;23.00;86.10
74368;DHT22;64991;41.090;-8.118;2023-06-10T15:24:09;23.00;86.00
74368;DHT22;64991;41.090;-8.118;2023-06-10T15:29:13;23.00;86.10
74368;DHT22;64991;41.090;-8.118;2023-06-10T15:34:17;23.00;86.10
74368;DHT22;64991;41.090;-8.118;2023-06-10T15:39:21;23.00;85.90
74368;DHT22;64991;41.090;-8.118;2023-06-10T15:44:26;23.00;86.40
74368;DHT22;64991;41.090;-8.118;2023-06-10T15:49:29;23.00;86.10
74368;DHT22;64991;41.090;-8.118;2023-06-10T15:54:34;23.00;86.00
74368;DHT22;64991;41.090;-8.118;2023-06-10T15:59:38;23.00;86.10
74368;DHT22;64991;41.090;-8.118;2023-06-10T16:04:41;23.00;86.30
74368;DHT22;64991;41.090;-8.118;2023-06-10T16:09:46;23.00;86.20
74368;DHT22;64991;41.090;-8.118;2023-06-10T16:14:49;23.00;85.90
74368;DHT22;64991;41.090;-8.118;2023-06-10T16:19:53;22.90;86.10
74368;DHT22;64991;41.090;-8.118;2023-06-10T16:24:58;23.00;86.20
74368;DHT22;64991;41.090;-8.118;2023-06-10T16:30:03;23.00;86.10
74368;DHT22;64991;41.090;-8.118;2023-06-10T16:35:08;22.90;86.00
74368;DHT22;64991;41.090;-8.118;2023-06-10T16:40:13;22.90;85.90
74368;DHT22;64991;41.090;-8.118;2023-06-10T16:45:16;23.00;86.20
74368;DHT22;64991;41.090;-8.118;2023-06-10T16:50:20;23.00;86.20
74368;DHT22;64991;41.090;-8.118;2023-06-10T16:55:25;23.00;86.20
74368;DHT22;64991;41.090;-8.118;2023-06-10T17:00:28;23.00;86.20
74368;DHT22;64991;41.090;-8.118;2023-06-10T17:05:32;23.00;86.20
74368;DHT22;64991;41.090;-8.118;2023-06-10T17:10:37;23.00;86.20
74368;DHT22;64991;41.090;-8.118;2023-06-10T17:15:40;23.00;86.50
74368;DHT22;64991;41.090;-8.118;2023-06-10T17:20:43;23.00;86.40
74368;DHT22;64991;41.090;-8.118;2023-06-10T17:25:48;23.00;86.30
74368;DHT22;64991;41.090;-8.118;2023-06-10T17:30:52;23.00;86.10
74368;DHT22;64991;41.090;-8.118;2023-06-10T17:35:55;23.00;86.30
74368;DHT22;64991;41.090;-8.118;2023-06-10T17:41:00;23.00;86.30
74368;DHT22;64991;41.090;-8.118;2023-06-10T17:46:03;23.00;86.10
74368;DHT22;64991;41.090;-8.118;2023-06-10T17:51:07;23.00;86.20
74368;DHT22;64991;41.090;-8.118;2023-06-10T17:56:12;23.00;86.30
74368;DHT22;64991;41.090;-8.118;2023-06-10T18:01:15;23.00;86.00
74368;DHT22;64991;41.090;-8.118;2023-06-10T18:06:19;23.00;86.10
74368;DHT22;64991;41.090;-8.118;2023-06-10T18:11:24;23.00;85.80
74368;DHT22;64991;41.090;-8.118;2023-06-10T18:16:29;23.00;85.90
74368;DHT22;64991;41.090;-8.118;2023-06-10T18:21:32;23.00;86.10
74368;DHT22;64991;41.090;-8.118;2023-06-10T18:26:39;23.00;86.00
74368;DHT22;64991;41.090;-8.118;2023-06-10T18:31:42;23.00;86.20
74368;DHT22;64991;41.090;-8.118;2023-06-10T18:36:46;23.00;86.00
74368;DHT22;64991;41.090;-8.118;2023-06-10T18:41:50;23.00;85.90
74368;DHT22;64991;41.090;-8.118;2023-06-10T18:46:54;23.00;86.10
74368;DHT22;64991;41.090;-8.118;2023-06-10T18:51:57;23.00;85.90
74368;DHT22;64991;41.090;-8.118;2023-06-10T18:57:02;23.00;86.20
74368;DHT22;64991;41.090;-8.118;2023-06-10T19:02:07;23.00;85.80
74368;DHT22;64991;41.090;-8.118;2023-06-10T19:07:12;23.10;86.10
74368;DHT22;64991;41.090;-8.118;2023-06-10T19:12:18;23.00;86.00
74368;DHT22;64991;41.090;-8.118;2023-06-10T19:17:22;23.00;86.00
74368;DHT22;64991;41.090;-8.118;2023-06-10T19:22:26;23.00;85.90
74368;DHT22;64991;41.090;-8.118;2023-06-10T19:27:31;23.00;86.00
74368;DHT22;64991;41.090;-8.118;2023-06-10T19:32:34;23.00;85.70
74368;DHT22;64991;41.090;-8.118;2023-06-10T19:37:38;23.10;85.90
74368;DHT22;64991;41.090;-8.118;2023-06-10T19:42:43;23.10;86.00
74368;DHT22;64991;41.090;-8.118;2023-06-10T19:47:46;23.00;86.00
74368;DHT22;64991;41.090;-8.118;2023-06-10T19:52:50;23.10;85.90
74368;DHT22;64991;41.090;-8.118;2023-06-10T19:57:55;23.00;85.80
74368;DHT22;64991;41.090;-8.118;2023-06-10T20:02:58;23.00;85.90
74368;DHT22;64991;41.090;-8.118;2023-06-10T20:08:02;23.00;86.10
74368;DHT22;64991;41.090;-8.118;2023-06-10T20:13:07;23.10;86.00
74368;DHT22;64991;41.090;-8.118;2023-06-10T20:18:10;23.00;85.90
74368;DHT22;64991;41.090;-8.118;2023-06-10T20:23:14;23.00;86.10
74368;DHT22;64991;41.090;-8.118;2023-06-10T20:28:18;23.10;85.70
74368;DHT22;64991;41.090;-8.118;2023-06-10T20:33:22;23.00;86.00
74368;DHT22;64991;41.090;-8.118;2023-06-10T20:38:25;23.10;85.80
74368;DHT22;64991;41.090;-8.118;2023-06-10T20:43:30;23.10;85.90
74368;DHT22;64991;41.090;-8.118;2023-06-10T20:48:34;23.10;85.80
74368;DHT22;64991;41.090;-8.118;2023-06-10T20:53:37;23.00;86.00
74368;DHT22;64991;41.090;-8.118;2023-06-10T20:58:42;23.00;86.10
74368;DHT22;64991;41.090;-8.118;2023-06-10T21:03:46;23.10;86.00
74368;DHT22;64991;41.090;-8.118;2023-06-10T21:08:50;23.00;86.00
74368;DHT22;64991;41.090;-8.118;2023-06-10T21:13:55;23.10;86.10
74368;DHT22;64991;41.090;-8.118;2023-06-10T21:18:58;23.10;86.10
74368;DHT22;64991;41.090;-8.118;2023-06-10T21:24:01;23.00;86.00
74368;DHT22;64991;41.090;-8.118;2023-06-10T21:29:07;23.10;86.00
74368;DHT22;64991;41.090;-8.118;2023-06-10T21:34:10;23.10;85.80
74368;DHT22;64991;41.090;-8.118;2023-06-10T21:39:14;23.10;85.90
74368;DHT22;64991;41.090;-8.118;2023-06-10T21:44:19;23.00;85.90
74368;DHT22;64991;41.090;-8.118;2023-06-10T21:49:22;23.10;86.00
74368;DHT22;64991;41.090;-8.118;2023-06-10T21:54:26;23.00;86.00
74368;DHT22;64991;41.090;-8.118;2023-06-10T21:59:30;23.10;85.80
74368;DHT22;64991;41.090;-8.118;2023-06-10T22:04:35;23.00;85.70
74368;DHT22;64991;41.090;-8.118;2023-06-10T22:09:46;23.00;86.00
74368;DHT22;64991;41.090;-8.118;2023-06-10T22:14:52;23.10;86.00
74368;DHT22;64991;41.090;-8.118;2023-06-10T22:19:56;23.00;86.10
74368;DHT22;64991;41.090;-8.118;2023-06-10T22:24:59;23.00;86.10
74368;DHT22;64991;41.090;-8.118;2023-06-10T22:30:05;23.10;86.00
74368;DHT22;64991;41.090;-8.118;2023-06-10T22:35:09;23.00;86.00
74368;DHT22;64991;41.090;-8.118;2023-06-10T22:40:13;23.00;86.10
74368;DHT22;64991;41.090;-8.118;2023-06-10T22:45:18;23.00;86.00
74368;DHT22;64991;41.090;-8.118;2023-06-10T22:50:23;23.10;86.20
74368;DHT22;64991;41.090;-8.118;2023-06-10T22:55:26;23.00;86.00
74368;DHT22;64991;41.090;-8.118;2023-06-10T23:00:31;23.00;86.00
74368;DHT22;64991;41.090;-8.118;2023-06-10T23:05:35;23.00;86.00
74368;DHT22;64991;41.090;-8.118;2023-06-10T23:10:38;23.00;86.20
74368;DHT22;64991;41.090;-8.118;2023-06-10T23:15:43;23.00;85.80
74368;DHT22;64991;41.090;-8.118;2023-06-10T23:20:47;23.00;85.90
74368;DHT22;64991;41.090;-8.118;2023-06-10T23:25:50;23.00;86.10
74368;DHT22;64991;41.090;-8.118;2023-06-10T23:30:55;23.10;86.00
74368;DHT22;64991;41.090;-8.118;2023-06-10T23:35:59;23.10;86.00
74368;DHT22;64991;41.090;-8.118;2023-06-10T23:41:02;23.00;86.10
74368;DHT22;64991;41.090;-8.118;2023-06-10T23:46:07;23.00;86.00
74368;DHT22;64991;41.090;-8.118;2023-06-10T23:51:10;23.10;85.60
74368;DHT22;64991;41.090;-8.118;2023-06-10T23:56:14;23.00;85.50
